createdAt,value
2022-10-23T00:02:16.816Z,13.38
2022-10-23T00:04:47.314Z,13.35
2022-10-23T00:07:17.776Z,13.39
2022-10-23T00:09:48.288Z,13.31
2022-10-23T00:12:18.663Z,13.28
2022-10-23T00:14:49.044Z,13.24
2022-10-23T00:17:19.429Z,13.19
2022-10-23T00:19:49.795Z,13.23
2022-10-23T00:22:20.187Z,13.14
2022-10-23T00:24:50.561Z,13.23
2022-10-23T00:27:21.187Z,13.18
2022-10-23T00:29:51.544Z,13.31
2022-10-23T00:32:21.975Z,13.18
2022-10-23T00:34:52.418Z,13.18
2022-10-23T00:37:22.965Z,13.20
2022-10-23T00:39:53.491Z,13.21
2022-10-23T00:42:23.959Z,13.28
2022-10-23T00:44:57.433Z,13.28
2022-10-23T00:47:27.886Z,13.48
2022-10-23T00:50:00.229Z,13.48
2022-10-23T00:52:31.635Z,13.43
2022-10-23T00:55:02.795Z,13.48
2022-10-23T00:57:33.226Z,13.46
2022-10-23T01:00:03.925Z,13.61
2022-10-23T01:02:34.366Z,13.62
2022-10-23T01:05:04.923Z,13.60
2022-10-23T01:07:38.392Z,13.71
2022-10-23T01:10:18.225Z,13.80
2022-10-23T01:13:00.703Z,13.67
2022-10-23T01:15:36.777Z,13.63
2022-10-23T01:18:19.167Z,13.58
2022-10-23T01:20:58.378Z,13.57
2022-10-23T01:24:05.803Z,13.60
2022-10-23T01:26:48.075Z,13.56
2022-10-23T01:29:30.618Z,13.56
2022-10-23T01:32:06.784Z,13.48
2022-10-23T01:34:43.383Z,13.47
2022-10-23T01:37:16.979Z,13.64
2022-10-23T01:39:50.784Z,13.55
2022-10-23T01:42:24.341Z,13.54
2022-10-23T01:45:01.135Z,13.62
2022-10-23T01:47:34.871Z,13.49
2022-10-23T01:50:07.136Z,13.50
2022-10-23T01:52:38.512Z,13.53
2022-10-23T01:55:11.817Z,13.56
2022-10-23T01:57:45.330Z,13.55
2022-10-23T02:00:18.338Z,13.42
2022-10-23T02:02:51.369Z,13.36
2022-10-23T02:05:27.759Z,13.35
2022-10-23T02:07:59.270Z,13.31
2022-10-23T02:10:41.837Z,13.29
2022-10-23T02:13:26.948Z,13.42
2022-10-23T02:16:06.088Z,13.38
2022-10-23T02:18:57.217Z,13.56
2022-10-23T02:21:56.218Z,13.47
2022-10-23T02:24:35.457Z,13.50
2022-10-23T02:27:11.440Z,13.48
2022-10-23T02:29:47.947Z,13.50
2022-10-23T02:32:20.876Z,13.43
2022-10-23T02:34:51.729Z,13.44
2022-10-23T02:39:53.785Z,13.42
2022-10-23T02:42:35.793Z,13.39
2022-10-23T02:45:24.521Z,13.32
2022-10-23T02:47:58.015Z,13.26
2022-10-23T02:50:46.732Z,13.30
2022-10-23T02:53:35.252Z,13.23
2022-10-23T02:56:16.973Z,13.18
2022-10-23T02:58:59.246Z,13.14
2022-10-23T03:01:32.863Z,13.12
2022-10-23T03:04:06.157Z,13.12
2022-10-23T03:06:36.993Z,13.04
2022-10-23T03:09:10.151Z,13.01
2022-10-23T03:11:40.557Z,13.04
2022-10-23T03:14:13.406Z,12.97
2022-10-23T03:16:43.855Z,12.96
2022-10-23T03:19:14.300Z,12.98
2022-10-23T03:21:44.815Z,12.99
2022-10-23T03:24:15.374Z,12.92
2022-10-23T03:26:45.697Z,12.96
2022-10-23T03:29:16.062Z,12.90
2022-10-23T03:31:46.445Z,12.85
2022-10-23T03:34:18.313Z,12.84
2022-10-23T03:36:48.873Z,12.78
2022-10-23T03:39:19.339Z,12.76
2022-10-23T03:41:50.115Z,12.76
2022-10-23T03:44:20.501Z,12.71
2022-10-23T03:46:50.899Z,12.70
2022-10-23T03:49:21.353Z,12.62
2022-10-23T03:51:52.913Z,12.58
2022-10-23T03:54:25.038Z,12.54
2022-10-23T03:56:57.572Z,12.58
2022-10-23T03:59:28.628Z,12.55
2022-10-23T04:01:59.035Z,12.49
2022-10-23T04:04:29.455Z,12.49
2022-10-23T04:06:59.836Z,12.47
2022-10-23T04:09:30.499Z,12.43
2022-10-23T04:12:00.825Z,12.40
2022-10-23T04:14:31.560Z,12.36
2022-10-23T04:17:01.959Z,12.34
2022-10-23T04:19:32.329Z,12.32
2022-10-23T04:22:02.738Z,12.28
2022-10-23T04:24:33.227Z,12.24
2022-10-23T04:27:03.793Z,12.20
2022-10-23T04:29:34.272Z,12.22
2022-10-23T04:32:04.652Z,12.17
2022-10-23T04:34:35.173Z,12.12
2022-10-23T04:37:05.608Z,12.06
2022-10-23T04:39:35.859Z,12.10
2022-10-23T04:42:06.262Z,12.06
2022-10-23T04:44:36.643Z,12.00
2022-10-23T04:47:07.041Z,11.99
2022-10-23T04:49:37.439Z,11.95
2022-10-23T04:52:07.857Z,11.92
2022-10-23T04:54:39.386Z,11.94
2022-10-23T04:57:09.787Z,11.96
2022-10-23T04:59:40.075Z,11.92
2022-10-23T05:02:10.511Z,11.86
2022-10-23T05:04:40.985Z,11.88
2022-10-23T05:07:11.390Z,11.84
2022-10-23T05:09:41.784Z,11.83
2022-10-23T05:12:12.137Z,11.81
2022-10-23T05:14:42.516Z,11.81
2022-10-23T05:17:22.102Z,11.82
2022-10-23T05:19:55.371Z,11.77
2022-10-23T05:22:29.024Z,11.78
2022-10-23T05:25:01.369Z,11.76
2022-10-23T05:27:31.881Z,11.76
2022-10-23T05:30:02.597Z,11.74
2022-10-23T05:32:36.669Z,11.76
2022-10-23T05:35:10.944Z,11.71
2022-10-23T05:37:44.687Z,11.74
2022-10-23T05:40:15.131Z,11.72
2022-10-23T05:42:45.655Z,11.71
2022-10-23T05:45:16.460Z,11.68
2022-10-23T05:47:49.071Z,11.71
2022-10-23T05:50:22.749Z,11.68
2022-10-23T05:52:53.084Z,11.66
2022-10-23T05:55:23.479Z,11.64
2022-10-23T05:57:54.035Z,11.58
2022-10-23T06:00:24.365Z,11.55
2022-10-23T06:02:54.843Z,11.56
2022-10-23T06:05:25.224Z,11.52
2022-10-23T06:08:00.433Z,11.55
2022-10-23T06:10:32.523Z,11.56
2022-10-23T06:13:02.949Z,11.56
2022-10-23T06:15:33.456Z,11.61
2022-10-23T06:18:05.132Z,11.62
2022-10-23T06:20:39.881Z,11.62
2022-10-23T06:23:10.213Z,11.62
2022-10-23T06:25:40.640Z,11.63
2022-10-23T06:28:11.036Z,11.61
2022-10-23T06:30:41.451Z,11.60
2022-10-23T06:33:11.816Z,11.58
2022-10-23T06:35:42.142Z,11.64
2022-10-23T06:38:12.610Z,11.69
2022-10-23T06:40:42.961Z,11.70
2022-10-23T06:43:13.353Z,11.75
2022-10-23T06:45:43.790Z,11.78
2022-10-23T06:48:14.491Z,11.86
2022-10-23T06:50:44.933Z,11.97
2022-10-23T06:53:15.439Z,12.00
2022-10-23T06:55:46.640Z,12.10
2022-10-23T06:58:17.986Z,12.04
2022-10-23T07:00:48.471Z,11.96
2022-10-23T07:03:18.905Z,11.93
2022-10-23T07:05:49.319Z,11.96
2022-10-23T07:08:19.770Z,11.96
2022-10-23T07:10:50.222Z,11.90
2022-10-23T07:13:20.556Z,11.88
2022-10-23T07:15:51.633Z,11.92
2022-10-23T07:18:22.064Z,12.01
2022-10-23T07:20:55.560Z,12.11
2022-10-23T07:23:26.032Z,12.21
2022-10-23T07:25:56.337Z,12.24
2022-10-23T07:28:26.621Z,12.41
2022-10-23T07:31:00.544Z,12.42
2022-10-23T07:33:30.862Z,12.50
2022-10-23T07:36:01.457Z,12.46
2022-10-23T07:38:31.824Z,12.50
2022-10-23T07:41:02.639Z,12.58
2022-10-23T07:43:34.807Z,12.55
2022-10-23T07:46:05.261Z,12.64
2022-10-23T07:48:36.497Z,12.68
2022-10-23T07:51:14.606Z,12.76
2022-10-23T07:53:45.246Z,12.88
2022-10-23T07:56:18.758Z,12.90
2022-10-23T07:58:49.378Z,12.97
2022-10-23T08:01:22.801Z,12.99
2022-10-23T08:03:53.832Z,13.14
2022-10-23T08:06:24.345Z,13.24
2022-10-23T08:08:54.779Z,13.31
2022-10-23T08:11:28.030Z,13.32
2022-10-23T08:13:59.186Z,13.34
2022-10-23T08:16:29.556Z,13.34
2022-10-23T08:19:00.182Z,13.37
2022-10-23T08:21:31.004Z,13.43
2022-10-23T08:24:02.186Z,13.43
2022-10-23T08:26:32.731Z,13.41
2022-10-23T08:29:03.161Z,13.50
2022-10-23T08:31:33.563Z,13.57
2022-10-23T08:34:04.064Z,13.61
2022-10-23T08:36:36.363Z,13.72
2022-10-23T08:39:07.508Z,13.75
2022-10-23T08:41:43.370Z,13.88
2022-10-23T08:44:26.300Z,13.93
2022-10-23T08:47:21.037Z,14.01
2022-10-23T08:50:03.344Z,14.09
2022-10-23T08:52:42.863Z,14.24
2022-10-23T08:55:16.778Z,14.27
2022-10-23T08:57:50.602Z,14.39
2022-10-23T09:00:24.085Z,14.40
2022-10-23T09:02:56.214Z,14.52
2022-10-23T09:05:32.951Z,14.68
2022-10-23T09:08:06.395Z,15.50
2022-10-23T09:10:51.972Z,16.88
2022-10-23T09:13:31.115Z,17.87
2022-10-23T09:16:16.820Z,19.00
2022-10-23T09:18:49.330Z,19.66
2022-10-23T09:21:20.928Z,20.19
2022-10-23T09:23:51.305Z,20.16
2022-10-23T09:26:22.467Z,20.06
2022-10-23T09:28:56.333Z,19.46
2022-10-23T09:31:26.716Z,19.12
2022-10-23T09:34:02.334Z,20.37
2022-10-23T09:36:33.492Z,21.18
2022-10-23T09:39:03.880Z,21.72
2022-10-23T09:41:39.858Z,22.26
2022-10-23T09:44:20.135Z,22.34
2022-10-23T09:46:56.216Z,21.65
2022-10-23T09:49:29.917Z,21.27
2022-10-23T09:52:12.409Z,19.96
2022-10-23T09:55:01.020Z,20.95
2022-10-23T09:57:38.201Z,21.38
2022-10-23T10:00:17.866Z,22.00
2022-10-23T10:03:02.502Z,20.42
2022-10-23T10:05:38.230Z,19.43
2022-10-23T10:08:11.609Z,19.30
2022-10-23T10:10:53.911Z,19.16
2022-10-23T10:13:55.789Z,20.11
2022-10-23T10:16:35.209Z,20.92
2022-10-23T10:19:23.914Z,22.91
2022-10-23T10:22:13.809Z,22.22
2022-10-23T10:25:05.528Z,22.74
2022-10-23T10:27:42.044Z,21.78
2022-10-23T10:30:18.505Z,20.76
2022-10-23T10:33:00.720Z,20.28
2022-10-23T10:35:52.978Z,19.85
2022-10-23T10:38:46.120Z,19.64
2022-10-23T10:41:40.235Z,20.14
2022-10-23T10:44:34.904Z,20.02
2022-10-23T10:47:32.559Z,21.01
2022-10-23T10:50:20.616Z,20.67
2022-10-23T10:53:14.697Z,20.81
2022-10-23T10:55:53.749Z,20.36
2022-10-23T10:58:28.137Z,20.59
2022-10-23T11:01:01.983Z,21.54
2022-10-23T11:03:51.836Z,20.48
2022-10-23T11:06:25.270Z,19.35
2022-10-23T11:09:03.993Z,19.42
2022-10-23T11:11:41.180Z,19.50
2022-10-23T11:14:24.074Z,19.35
2022-10-23T11:17:27.782Z,19.55
2022-10-23T11:20:19.352Z,19.97
2022-10-23T11:23:10.467Z,20.46
2022-10-23T11:26:03.368Z,21.02
2022-10-23T11:29:00.982Z,21.37
2022-10-23T11:32:00.262Z,21.69
2022-10-23T11:35:05.684Z,21.35
2022-10-23T11:37:36.059Z,21.94
2022-10-23T11:40:12.362Z,22.10
2022-10-23T11:42:46.144Z,21.96
2022-10-23T11:45:38.350Z,22.25
2022-10-23T11:48:26.761Z,21.58
2022-10-23T11:50:59.090Z,21.22
2022-10-23T11:53:34.954Z,21.10
2022-10-23T11:56:08.341Z,21.14
2022-10-23T11:58:54.039Z,20.76
2022-10-23T12:01:36.634Z,20.24
2022-10-23T12:04:19.480Z,20.43
2022-10-23T12:06:55.839Z,20.33
2022-10-23T12:09:29.378Z,20.35
2022-10-23T12:15:15.844Z,20.56
2022-10-23T12:17:48.071Z,20.42
2022-10-23T12:20:30.478Z,20.38
2022-10-23T12:23:06.923Z,20.10
2022-10-23T12:25:55.508Z,19.77
2022-10-23T12:28:41.168Z,19.53
2022-10-23T12:31:29.878Z,19.56
2022-10-23T12:34:20.060Z,19.54
2022-10-23T12:37:24.841Z,19.22
2022-10-23T12:39:57.065Z,19.38
2022-10-23T12:42:29.311Z,19.28
2022-10-23T12:45:26.658Z,19.34
2022-10-23T12:47:57.078Z,19.38
2022-10-23T12:50:30.239Z,19.21
2022-10-23T12:53:07.524Z,19.08
2022-10-23T12:58:34.964Z,18.88
2022-10-23T13:01:07.732Z,18.85
2022-10-23T13:03:40.150Z,18.92
2022-10-23T13:06:12.413Z,18.95
2022-10-23T13:08:45.887Z,18.98
2022-10-23T13:11:19.566Z,18.90
2022-10-23T13:13:50.409Z,18.90
2022-10-23T13:16:23.551Z,18.92
2022-10-23T13:18:54.447Z,18.82
2022-10-23T13:21:28.645Z,18.62
2022-10-23T13:23:59.159Z,18.74
2022-10-23T13:26:44.452Z,18.70
2022-10-23T13:29:33.334Z,18.71
2022-10-23T13:32:13.774Z,18.81
2022-10-23T13:34:53.746Z,18.94
2022-10-23T13:37:25.131Z,19.12
2022-10-23T13:40:08.812Z,19.01
2022-10-23T13:42:45.013Z,18.92
2022-10-23T13:45:18.936Z,18.84
2022-10-23T13:47:49.524Z,18.81
2022-10-23T13:50:20.761Z,18.69
2022-10-23T13:52:51.145Z,18.66
2022-10-23T13:55:24.682Z,18.50
2022-10-23T13:57:56.299Z,18.48
2022-10-23T14:00:26.652Z,18.50
2022-10-23T14:02:56.961Z,18.43
2022-10-23T14:05:27.361Z,18.42
2022-10-23T14:07:58.042Z,18.38
2022-10-23T14:10:28.466Z,18.43
2022-10-23T14:12:58.953Z,18.16
2022-10-23T14:15:29.375Z,18.11
2022-10-23T14:18:01.531Z,18.00
2022-10-23T14:20:31.957Z,18.09
2022-10-23T14:23:02.422Z,17.87
2022-10-23T14:25:32.814Z,17.89
2022-10-23T14:28:03.265Z,17.93
2022-10-23T14:30:33.927Z,17.80
2022-10-23T14:33:04.657Z,17.84
2022-10-23T14:35:35.449Z,17.88
2022-10-23T14:38:05.816Z,17.87
2022-10-23T14:40:38.503Z,17.78
2022-10-23T14:43:08.822Z,17.80
2022-10-23T14:45:39.231Z,17.71
2022-10-23T14:48:09.658Z,17.70
2022-10-23T14:50:47.303Z,17.66
2022-10-23T14:53:17.891Z,17.68
2022-10-23T14:55:48.180Z,17.60
2022-10-23T14:58:18.479Z,17.52
2022-10-23T15:00:51.952Z,17.47
2022-10-23T15:03:22.398Z,17.38
2022-10-23T15:05:53.046Z,17.35
2022-10-23T15:08:24.300Z,17.34
2022-10-23T15:10:54.674Z,17.27
2022-10-23T15:13:25.125Z,17.22
2022-10-23T15:16:10.807Z,17.25
2022-10-23T15:18:41.333Z,17.13
2022-10-23T15:21:11.812Z,17.09
2022-10-23T15:23:44.956Z,17.04
2022-10-23T15:26:22.166Z,17.03
2022-10-23T15:28:58.571Z,16.96
2022-10-23T15:31:38.007Z,16.88
2022-10-23T15:34:13.784Z,16.82
2022-10-23T15:36:45.016Z,16.81
2022-10-23T15:39:17.936Z,16.80
2022-10-23T15:41:49.602Z,16.67
2022-10-23T15:44:21.143Z,16.62
2022-10-23T15:46:52.497Z,16.53
2022-10-23T15:49:22.799Z,16.48
2022-10-23T15:51:54.307Z,16.44
2022-10-23T15:54:28.103Z,16.50
2022-10-23T15:56:57.325Z,16.44
2022-10-23T15:59:28.707Z,16.42
2022-10-23T16:02:01.810Z,16.40
2022-10-23T16:04:33.145Z,16.44
2022-10-23T16:07:15.020Z,16.43
2022-10-23T16:09:45.811Z,16.46
2022-10-23T16:12:17.196Z,16.49
2022-10-23T16:14:47.709Z,16.44
2022-10-23T16:17:19.375Z,16.41
2022-10-23T16:19:49.770Z,16.35
2022-10-23T16:22:20.239Z,16.35
2022-10-23T16:24:50.555Z,16.34
2022-10-23T16:27:21.000Z,16.30
2022-10-23T16:29:51.475Z,16.28
2022-10-23T16:32:21.996Z,16.31
2022-10-23T16:34:52.464Z,16.24
2022-10-23T16:37:22.889Z,16.36
2022-10-23T16:39:53.298Z,16.23
2022-10-23T16:42:23.916Z,16.16
2022-10-23T16:44:56.660Z,16.17
2022-10-23T16:47:27.131Z,16.10
2022-10-23T16:49:57.703Z,16.12
2022-10-23T16:52:28.972Z,16.20
2022-10-23T16:54:59.501Z,16.16
2022-10-23T16:57:29.813Z,16.19
2022-10-23T17:00:00.299Z,16.18
2022-10-23T17:02:30.765Z,16.37
2022-10-23T17:05:01.436Z,16.25
2022-10-23T17:07:34.893Z,16.24
2022-10-23T17:10:05.829Z,16.16
2022-10-23T17:12:37.224Z,16.20
2022-10-23T17:15:08.780Z,16.18
2022-10-23T17:17:39.264Z,16.14
2022-10-23T17:20:10.632Z,16.28
2022-10-23T17:22:41.029Z,16.19
2022-10-23T17:25:12.656Z,16.19
2022-10-23T17:27:43.646Z,16.22
2022-10-23T17:30:14.494Z,16.21
2022-10-23T17:32:45.198Z,16.22
2022-10-23T17:35:16.020Z,16.14
2022-10-23T17:37:46.660Z,16.13
2022-10-23T17:40:24.752Z,16.08
2022-10-23T17:42:52.479Z,16.04
2022-10-23T17:45:23.028Z,16.09
2022-10-23T17:47:53.885Z,15.98
2022-10-23T17:50:24.447Z,16.11
2022-10-23T17:52:55.061Z,16.08
2022-10-23T17:55:27.083Z,15.99
2022-10-23T17:57:59.217Z,16.04
2022-10-23T18:00:29.783Z,16.00
2022-10-23T18:03:00.130Z,16.05
2022-10-23T18:05:33.357Z,16.01
2022-10-23T18:08:04.053Z,16.03
2022-10-23T18:10:36.916Z,15.95
2022-10-23T18:13:07.654Z,16.03
2022-10-23T18:15:39.656Z,15.95
2022-10-23T18:18:11.731Z,15.88
2022-10-23T18:20:42.309Z,15.81
2022-10-23T18:23:14.307Z,15.80
2022-10-23T18:25:46.019Z,15.70
2022-10-23T18:28:16.401Z,15.67
2022-10-23T18:30:48.132Z,15.68
2022-10-23T18:33:20.082Z,15.68
2022-10-23T18:35:50.870Z,15.54
2022-10-23T18:38:21.528Z,15.50
2022-10-23T18:40:57.268Z,15.54
2022-10-23T18:43:43.172Z,15.47
2022-10-23T18:46:02.366Z,15.42
2022-10-23T18:48:36.277Z,15.41
2022-10-23T18:51:11.149Z,15.41
2022-10-23T18:53:40.681Z,15.44
2022-10-23T18:56:11.347Z,15.35
2022-10-23T18:58:42.157Z,15.38
2022-10-23T19:01:14.535Z,15.28
2022-10-23T19:03:45.489Z,15.34
2022-10-23T19:06:17.053Z,15.28
2022-10-23T19:08:48.452Z,15.23
2022-10-23T19:11:21.259Z,15.32
2022-10-23T19:13:52.095Z,15.20
2022-10-23T19:16:42.694Z,15.24
2022-10-23T19:19:22.015Z,15.22
2022-10-23T19:21:54.009Z,15.18
2022-10-23T19:24:29.462Z,15.09
2022-10-23T19:27:01.912Z,15.13
2022-10-23T19:29:33.307Z,15.12
2022-10-23T19:32:04.260Z,15.15
2022-10-23T19:34:35.268Z,15.12
2022-10-23T19:37:05.932Z,15.10
2022-10-23T19:39:36.725Z,15.09
2022-10-23T19:42:08.743Z,15.05
2022-10-23T19:44:39.367Z,15.00
2022-10-23T19:47:09.879Z,15.01
2022-10-23T19:49:40.661Z,14.98
2022-10-23T19:52:11.284Z,14.96
2022-10-23T19:54:41.901Z,14.97
2022-10-23T19:57:13.128Z,14.90
2022-10-23T19:59:43.956Z,14.96
2022-10-23T20:02:15.120Z,14.88
2022-10-23T20:04:46.057Z,14.86
2022-10-23T20:07:16.718Z,14.93
2022-10-23T20:09:47.329Z,14.89
2022-10-23T20:12:17.798Z,14.86
2022-10-23T20:14:48.270Z,14.80
2022-10-23T20:17:18.766Z,14.78
2022-10-23T20:19:49.980Z,14.79
2022-10-23T20:22:21.254Z,14.90
2022-10-23T20:24:51.739Z,14.78
2022-10-23T20:27:22.268Z,14.78
2022-10-23T20:29:52.841Z,14.82
2022-10-23T20:32:23.469Z,14.71
2022-10-23T20:34:54.125Z,14.69
2022-10-23T20:37:24.602Z,14.74
2022-10-23T20:39:56.443Z,14.65
2022-10-23T20:42:26.924Z,14.56
2022-10-23T20:44:57.441Z,14.60
2022-10-23T20:47:27.803Z,14.50
2022-10-23T20:49:58.265Z,14.49
2022-10-23T20:52:30.110Z,14.43
2022-10-23T20:55:00.800Z,14.35
2022-10-23T20:57:31.478Z,14.38
2022-10-23T21:00:03.132Z,14.34
2022-10-23T21:02:33.835Z,14.36
2022-10-23T21:05:04.617Z,14.31
2022-10-23T21:07:35.165Z,14.22
2022-10-23T21:10:06.719Z,14.19
2022-10-23T21:12:38.455Z,14.27
2022-10-23T21:15:10.214Z,14.12
2022-10-23T21:17:41.231Z,14.08
2022-10-23T21:20:12.136Z,14.08
2022-10-23T21:22:43.077Z,14.02
2022-10-23T21:25:15.441Z,14.00
2022-10-23T21:27:46.633Z,13.98
2022-10-23T21:30:17.416Z,13.96
2022-10-23T21:32:47.845Z,13.96
2022-10-23T21:35:18.591Z,14.03
2022-10-23T21:37:49.065Z,14.05
2022-10-23T21:40:19.517Z,14.04
2022-10-23T21:42:50.054Z,14.08
2022-10-23T21:45:21.066Z,14.02
2022-10-23T21:47:51.443Z,14.06
2022-10-23T21:50:21.756Z,14.08
2022-10-23T21:52:53.233Z,14.14
2022-10-23T21:55:29.943Z,14.11
2022-10-23T21:58:00.332Z,14.05
2022-10-23T22:00:30.719Z,14.13
2022-10-23T22:03:01.124Z,14.10
2022-10-23T22:05:31.544Z,14.13
2022-10-23T22:08:01.914Z,14.33
2022-10-23T22:10:32.244Z,14.20
2022-10-23T22:13:02.556Z,14.32
2022-10-23T22:15:33.003Z,14.34
2022-10-23T22:18:03.563Z,14.21
2022-10-23T22:20:33.964Z,14.23
2022-10-23T22:23:04.359Z,14.18
2022-10-23T22:25:34.784Z,14.16
2022-10-23T22:28:05.227Z,14.23
2022-10-23T22:30:37.550Z,14.16
2022-10-23T22:33:07.949Z,14.00
2022-10-23T22:35:38.332Z,14.00
2022-10-23T22:38:08.715Z,13.94
2022-10-23T22:40:43.064Z,13.84
2022-10-23T22:43:11.081Z,13.78
2022-10-23T22:45:41.474Z,13.76
2022-10-23T22:48:11.980Z,13.70
2022-10-23T22:50:42.385Z,13.61
2022-10-23T22:53:12.794Z,13.45
2022-10-23T22:55:44.014Z,13.38
2022-10-23T22:58:14.466Z,13.29
2022-10-23T23:00:44.904Z,13.24
2022-10-23T23:03:15.461Z,13.16
2022-10-23T23:05:48.601Z,13.22
2022-10-23T23:08:18.960Z,13.16
2022-10-23T23:10:59.151Z,13.04
2022-10-23T23:13:29.868Z,12.99
2022-10-23T23:16:00.857Z,13.04
2022-10-23T23:18:31.688Z,13.08
2022-10-23T23:21:06.703Z,13.00
2022-10-23T23:23:37.778Z,13.00
2022-10-23T23:26:09.238Z,12.94
2022-10-23T23:28:39.628Z,12.95
2022-10-23T23:31:15.030Z,12.98
2022-10-23T23:33:45.942Z,12.86
2022-10-23T23:36:19.339Z,12.93
2022-10-23T23:38:50.286Z,12.96
2022-10-23T23:41:22.241Z,12.96
2022-10-23T23:43:54.938Z,12.93
2022-10-23T23:46:27.002Z,12.95
2022-10-23T23:48:57.310Z,12.98
2022-10-23T23:51:27.934Z,13.00
2022-10-23T23:53:58.266Z,13.00
2022-10-23T23:56:28.745Z,13.04
2022-10-23T23:58:59.347Z,13.01
